首页
METAR-TAF:

METAR-TAF

机场 :

哥伦比亚, 南卡罗来纳州, 美国

纬度: 33-58-15N, 经度: 080-59-40W, 海拔: 64米

当前天气观测

该预报发布于48分钟前的07:53 UTC
风速4节,风向
温度 8°C
湿度 76%
气压 1015 hPa
能見度: 16.1公里
阴天层高于1200英尺

METAR: KCUB 170753Z AUTO 08004KT 10SM OVC012 08/04 A2998 RMK AO2 SLP150 T00780044

时间: 03:41 (08:41 UTC)

预报

该预报发布于3小时和11分钟前的05:30 UTC
预报有效从17日的 06点(UTC)到 18日的 06点(UTC)
风速7节,风向东北
能見度: 10公里
散云层高于800英尺
阴天层高于1200英尺
从 17日的 1000点(UTC)
风速3节,风向东转东北
能見度: 10公里
阴天层高于800英尺
小毛毛雨
从 17日的 2100点(UTC)
风速5节,风向
能見度: 8.0公里
阴天层高于700英尺
小雨, 轻雾
从 18日的 0300点(UTC)
风速5节,风向
能見度: 3.2公里
阴天层高于400英尺
小雨, 毛毛雨, 轻雾

TAF: KCUB 170530Z 1706/1806 05007KT P6SM SCT008 OVC012 FM171000 06003KT P6SM -DZ OVC008 FM172100 08005KT 5SM -RA BR OVC007 FM180300 10005KT 2SM -RADZ BR OVC004

超过4000个机场的气象观测和天气预报(METAR&TAF报告)。

可查询的气象台以黄色和红色小点在地图上表示。

将鼠标移到小点上方,可查看气象台名称。

然后点击查看天气观测和预报。

如需切换地图:点击带黑十字的绿色按钮放大地图;点击带横线的绿色按钮缩小地图;或者点击绿色箭头查看邻近地区的地图。


METAR-TAF: